createdAt,value
2022-12-04T00:00:35.264Z,101784.75
2022-12-04T00:03:02.976Z,101777.75
2022-12-04T00:05:32.122Z,101780.28
2022-12-04T00:07:59.733Z,101781.25
2022-12-04T00:10:27.394Z,101781.25
2022-12-04T00:12:55.064Z,101773.31
2022-12-04T00:15:25.654Z,101775.03
2022-12-04T00:17:54.172Z,101764.66
2022-12-04T00:20:22.950Z,101758.69
2022-12-04T00:22:52.131Z,101758.69
2022-12-04T00:25:20.307Z,101755.25
2022-12-04T00:27:47.960Z,101759.56
2022-12-04T00:30:15.675Z,101755.19
2022-12-04T00:32:43.258Z,101757.84
2022-12-04T00:35:10.916Z,101752.69
2022-12-04T00:37:38.727Z,101753.66
2022-12-04T00:40:09.293Z,101754.56
2022-12-04T00:42:36.974Z,101749.34
2022-12-04T00:45:05.103Z,101757.16
2022-12-04T00:47:32.752Z,101755.25
2022-12-04T00:50:00.413Z,101754.50
2022-12-04T00:52:28.356Z,101761.47
2022-12-04T00:54:56.957Z,101757.91
2022-12-04T00:57:26.051Z,101754.44
2022-12-04T00:59:53.898Z,101754.56
2022-12-04T01:02:21.807Z,101754.56
2022-12-04T01:04:49.636Z,101760.66
2022-12-04T01:07:17.274Z,101764.06
2022-12-04T01:09:44.925Z,101769.28
2022-12-04T01:12:17.581Z,101771.16
2022-12-04T01:14:49.547Z,101761.63
2022-12-04T01:17:17.231Z,101760.72
2022-12-04T01:19:44.875Z,101759.03
2022-12-04T01:22:12.480Z,101758.22
2022-12-04T01:24:40.301Z,101754.66
2022-12-04T01:27:08.789Z,101764.13
2022-12-04T01:29:36.455Z,101756.31
2022-12-04T01:32:05.979Z,101760.72
2022-12-04T01:34:33.689Z,101759.03
2022-12-04T01:37:01.304Z,101757.28
2022-12-04T01:39:29.044Z,101766.72
2022-12-04T01:41:56.748Z,101764.88
2022-12-04T01:44:25.739Z,101758.75
2022-12-04T01:46:55.334Z,101758.75
2022-12-04T01:49:26.989Z,101749.25
2022-12-04T01:51:57.573Z,101753.56
2022-12-04T01:54:29.093Z,101764.78
2022-12-04T01:57:00.221Z,101749.97
2022-12-04T01:59:32.920Z,101751.00
2022-12-04T02:02:04.829Z,101750.25
2022-12-04T02:04:35.005Z,101744.25
2022-12-04T02:07:02.768Z,101752.13
2022-12-04T02:09:30.948Z,101745.19
2022-12-04T02:12:05.134Z,101745.25
2022-12-04T02:14:39.359Z,101757.38
2022-12-04T02:17:14.586Z,101750.53
2022-12-04T02:19:53.501Z,101753.22
2022-12-04T02:22:31.483Z,101747.16
2022-12-04T02:25:00.939Z,101735.78
2022-12-04T02:27:48.321Z,101742.66
2022-12-04T02:30:16.511Z,101743.50
2022-12-04T02:32:46.726Z,101747.06
2022-12-04T02:35:17.578Z,101742.66
2022-12-04T02:37:47.203Z,101739.19
2022-12-04T02:40:18.611Z,101741.84
2022-12-04T02:42:51.109Z,101731.44
2022-12-04T02:45:21.897Z,101727.88
2022-12-04T02:47:49.563Z,101727.88
2022-12-04T02:50:18.992Z,101727.88
2022-12-04T02:52:49.168Z,101731.44
2022-12-04T02:55:19.083Z,101728.03
2022-12-04T02:57:52.006Z,101724.53
2022-12-04T03:00:20.372Z,101723.69
2022-12-04T03:02:50.727Z,101715.91
2022-12-04T03:05:21.680Z,101724.69
2022-12-04T03:07:52.850Z,101717.69
2022-12-04T03:10:24.977Z,101717.59
2022-12-04T03:12:56.085Z,101714.09
2022-12-04T03:15:27.684Z,101712.41
2022-12-04T03:17:57.840Z,101703.94
2022-12-04T03:20:26.648Z,101721.81
2022-12-04T03:22:57.998Z,101713.19
2022-12-04T03:25:29.974Z,101708.91
2022-12-04T03:28:02.636Z,101719.38
2022-12-04T03:30:34.828Z,101709.78
2022-12-04T03:33:07.112Z,101713.25
2022-12-04T03:35:41.059Z,101711.50
2022-12-04T03:38:13.600Z,101717.50
2022-12-04T03:40:45.090Z,101710.44
2022-12-04T03:43:17.351Z,101711.28
2022-12-04T03:45:48.471Z,101712.97
2022-12-04T03:48:22.965Z,101714.75
2022-12-04T03:50:54.019Z,101694.13
2022-12-04T03:53:24.301Z,101705.28
2022-12-04T03:55:54.513Z,101707.09
2022-12-04T03:58:29.532Z,101704.47
2022-12-04T04:00:58.120Z,101710.53
2022-12-04T04:03:28.911Z,101717.59
2022-12-04T04:06:01.028Z,101709.88
2022-12-04T04:08:34.077Z,101714.16
2022-12-04T04:11:09.428Z,101711.63
2022-12-04T04:13:59.348Z,101721.13
2022-12-04T04:16:47.176Z,101714.97
2022-12-04T04:19:34.195Z,101717.50
2022-12-04T04:22:22.304Z,101717.44
2022-12-04T04:24:53.326Z,101718.25
2022-12-04T04:27:20.978Z,101722.66
2022-12-04T04:29:52.505Z,101717.41
2022-12-04T04:32:26.272Z,101709.56
2022-12-04T04:34:59.148Z,101718.19
2022-12-04T04:37:31.571Z,101720.75
2022-12-04T04:40:05.073Z,101705.13
2022-12-04T04:42:36.222Z,101713.75
2022-12-04T04:45:07.753Z,101716.38
2022-12-04T04:47:39.004Z,101721.66
2022-12-04T04:50:08.653Z,101718.97
2022-12-04T04:52:37.101Z,101706.91
2022-12-04T04:55:05.627Z,101721.53
2022-12-04T04:57:35.876Z,101721.53
2022-12-04T05:00:05.228Z,101725.00
2022-12-04T05:02:34.475Z,101717.22
2022-12-04T05:05:02.333Z,101725.91
2022-12-04T05:07:30.237Z,101720.69
2022-12-04T05:09:58.311Z,101732.84
2022-12-04T05:12:26.287Z,101731.00
2022-12-04T05:14:53.936Z,101732.81
2022-12-04T05:17:21.595Z,101741.44
2022-12-04T05:19:57.856Z,101735.31
2022-12-04T05:22:31.561Z,101740.56
2022-12-04T05:24:59.646Z,101736.31
2022-12-04T05:27:28.029Z,101737.13
2022-12-04T05:29:56.685Z,101737.84
2022-12-04T05:32:27.002Z,101741.31
2022-12-04T05:34:57.010Z,101740.44
2022-12-04T05:37:25.582Z,101734.41
2022-12-04T05:39:53.503Z,101738.81
2022-12-04T05:42:21.355Z,101736.22
2022-12-04T05:44:49.368Z,101737.06
2022-12-04T05:47:17.153Z,101735.31
2022-12-04T05:49:45.031Z,101726.63
2022-12-04T05:52:14.120Z,101724.94
2022-12-04T05:54:41.766Z,101723.28
2022-12-04T05:57:09.451Z,101716.38
2022-12-04T05:59:37.430Z,101723.22
2022-12-04T06:02:05.301Z,101713.63
2022-12-04T06:04:33.104Z,101715.38
2022-12-04T06:07:00.733Z,101705.03
2022-12-04T06:09:29.814Z,101707.66
2022-12-04T06:11:58.531Z,101708.56
2022-12-04T06:14:26.251Z,101723.28
2022-12-04T06:16:53.961Z,101705.03
2022-12-04T06:19:22.807Z,101707.66
2022-12-04T06:21:51.790Z,101699.84
2022-12-04T06:24:21.596Z,101701.53
2022-12-04T06:27:25.560Z,101703.25
2022-12-04T06:29:38.900Z,101711.84
2022-12-04T06:32:06.674Z,101705.72
2022-12-04T06:34:35.546Z,101708.34
2022-12-04T06:37:03.145Z,101706.66
2022-12-04T06:39:30.761Z,101713.66
2022-12-04T06:41:59.785Z,101725.88
2022-12-04T06:44:27.481Z,101721.59
2022-12-04T06:46:55.128Z,101710.28
2022-12-04T06:49:22.983Z,101718.97
2022-12-04T06:51:50.640Z,101718.19
2022-12-04T06:54:18.283Z,101720.06
2022-12-04T06:56:45.892Z,101719.22
2022-12-04T06:59:14.896Z,101729.56
2022-12-04T07:01:42.611Z,101731.28
2022-12-04T07:04:10.369Z,101731.22
2022-12-04T07:06:39.538Z,101727.75
2022-12-04T07:09:09.722Z,101738.19
2022-12-04T07:11:38.085Z,101733.06
2022-12-04T07:14:05.816Z,101734.78
2022-12-04T07:16:40.749Z,101732.13
2022-12-04T07:19:09.007Z,101730.38
2022-12-04T07:21:36.647Z,101733.81
2022-12-04T07:24:04.627Z,101739.94
2022-12-04T07:26:32.357Z,101735.56
2022-12-04T07:29:00.558Z,101739.03
2022-12-04T07:31:30.309Z,101733.94
2022-12-04T07:33:59.936Z,101742.44
2022-12-04T07:36:28.538Z,101736.38
2022-12-04T07:38:56.275Z,101745.84
2022-12-04T07:41:24.015Z,101740.56
2022-12-04T07:43:51.702Z,101749.25
2022-12-04T07:46:21.232Z,101746.63
2022-12-04T07:48:48.885Z,101754.41
2022-12-04T07:51:20.652Z,101750.03
2022-12-04T07:53:48.863Z,101743.06
2022-12-04T07:56:16.766Z,101749.97
2022-12-04T07:58:44.843Z,101742.09
2022-12-04T08:01:14.803Z,101750.88
2022-12-04T08:03:47.469Z,101745.72
2022-12-04T08:06:18.028Z,101750.09
2022-12-04T08:08:45.792Z,101755.25
2022-12-04T08:11:14.750Z,101744.09
2022-12-04T08:13:42.645Z,101742.38
2022-12-04T08:16:12.231Z,101745.84
2022-12-04T08:18:40.279Z,101750.09
2022-12-04T08:21:09.554Z,101747.53
2022-12-04T08:23:39.297Z,101751.84
2022-12-04T08:26:07.269Z,101755.25
2022-12-04T08:28:35.682Z,101756.88
2022-12-04T08:31:04.535Z,101761.19
2022-12-04T08:33:32.576Z,101769.81
2022-12-04T08:36:00.515Z,101772.44
2022-12-04T08:38:28.147Z,101767.22
2022-12-04T08:41:01.147Z,101770.72
2022-12-04T08:43:29.047Z,101769.00
2022-12-04T08:45:58.028Z,101753.47
2022-12-04T08:48:25.848Z,101759.56
2022-12-04T08:50:53.543Z,101758.59
2022-12-04T08:53:21.241Z,101765.44
2022-12-04T08:55:48.923Z,101752.41
2022-12-04T08:58:18.296Z,101760.06
2022-12-04T09:00:46.025Z,101761.78
2022-12-04T09:03:14.976Z,101759.94
2022-12-04T09:05:43.135Z,101765.16
2022-12-04T09:08:10.849Z,101764.31
2022-12-04T09:10:38.660Z,101761.72
2022-12-04T09:13:07.116Z,101766.94
2022-12-04T09:15:39.333Z,101765.25
2022-12-04T09:18:07.174Z,101768.69
2022-12-04T09:20:34.891Z,101769.53
2022-12-04T09:23:04.445Z,101766.06
2022-12-04T09:25:32.816Z,101766.94
2022-12-04T09:28:00.552Z,101767.84
2022-12-04T09:30:28.228Z,101770.44
2022-12-04T09:32:57.283Z,101760.94
2022-12-04T09:35:24.925Z,101766.91
2022-12-04T09:37:52.699Z,101760.88
2022-12-04T09:40:30.649Z,101767.78
2022-12-04T09:43:07.815Z,101770.44
2022-12-04T09:45:42.210Z,101766.03
2022-12-04T09:48:12.034Z,101777.28
2022-12-04T09:50:42.309Z,101773.78
2022-12-04T09:53:12.667Z,101766.88
2022-12-04T09:55:43.957Z,101752.88
2022-12-04T09:58:15.055Z,101748.44
2022-12-04T10:00:43.821Z,101751.00
2022-12-04T10:03:17.275Z,101751.00
2022-12-04T10:05:51.118Z,101750.09
2022-12-04T10:08:22.169Z,101753.50
2022-12-04T10:10:57.493Z,101747.38
2022-12-04T10:13:40.577Z,101746.41
2022-12-04T10:16:13.284Z,101748.25
2022-12-04T10:18:48.994Z,101740.53
2022-12-04T10:21:27.924Z,101744.78
2022-12-04T10:24:02.397Z,101746.41
2022-12-04T10:26:34.217Z,101742.06
2022-12-04T10:29:04.957Z,101748.06
2022-12-04T10:31:33.422Z,101742.84
2022-12-04T10:34:06.401Z,101746.28
2022-12-04T10:36:36.019Z,101739.25
2022-12-04T10:39:06.813Z,101737.56
2022-12-04T10:41:40.262Z,101733.13
2022-12-04T10:44:14.878Z,101733.25
2022-12-04T10:46:46.038Z,101733.25
2022-12-04T10:49:18.613Z,101745.38
2022-12-04T10:51:47.570Z,101733.19
2022-12-04T10:54:21.440Z,101728.03
2022-12-04T10:56:53.547Z,101731.50
2022-12-04T10:59:21.352Z,101730.63
2022-12-04T11:01:49.640Z,101730.63
2022-12-04T11:04:23.832Z,101730.63
2022-12-04T11:06:52.904Z,101727.13
2022-12-04T11:09:23.455Z,101728.03
2022-12-04T11:11:51.594Z,101730.47
2022-12-04T11:14:21.029Z,101727.81
2022-12-04T11:16:50.475Z,101732.97
2022-12-04T11:19:22.921Z,101734.66
2022-12-04T11:21:51.337Z,101725.13
2022-12-04T11:24:23.372Z,101729.53
2022-12-04T11:26:51.811Z,101723.44
2022-12-04T11:29:20.337Z,101726.03
2022-12-04T11:31:52.006Z,101733.88
2022-12-04T11:34:23.415Z,101734.72
2022-12-04T11:36:53.687Z,101732.97
2022-12-04T11:39:25.778Z,101720.81
2022-12-04T11:42:01.595Z,101729.50
2022-12-04T11:44:30.998Z,101713.00
2022-12-04T11:47:01.955Z,101710.28
2022-12-04T11:49:33.065Z,101700.81
2022-12-04T11:52:16.290Z,101701.56
2022-12-04T11:54:56.395Z,101707.56
2022-12-04T11:57:29.333Z,101708.47
2022-12-04T12:00:06.091Z,101690.16
2022-12-04T12:03:04.453Z,101681.53
2022-12-04T12:05:47.191Z,101686.81
2022-12-04T12:08:21.025Z,101677.19
2022-12-04T12:10:53.154Z,101677.94
2022-12-04T12:13:26.940Z,101676.13
2022-12-04T12:16:01.571Z,101670.00
2022-12-04T12:18:42.438Z,101656.84
2022-12-04T12:21:15.741Z,101649.09
2022-12-04T12:23:51.751Z,101647.31
2022-12-04T12:26:19.986Z,101648.19
2022-12-04T12:29:05.613Z,101648.25
2022-12-04T12:31:49.081Z,101638.97
2022-12-04T12:34:19.977Z,101638.97
2022-12-04T12:36:54.204Z,101654.41
2022-12-04T12:39:27.903Z,101635.38
2022-12-04T12:41:58.452Z,101650.00
2022-12-04T12:44:28.515Z,101650.06
2022-12-04T12:46:58.180Z,101655.28
2022-12-04T12:49:29.872Z,101655.31
2022-12-04T12:52:04.018Z,101653.63
2022-12-04T12:54:35.453Z,101661.34
2022-12-04T12:57:06.403Z,101655.16
2022-12-04T12:59:34.619Z,101652.53
2022-12-04T13:02:06.535Z,101649.94
2022-12-04T13:04:39.168Z,101644.84
2022-12-04T13:07:21.897Z,101649.91
2022-12-04T13:09:53.140Z,101639.47
2022-12-04T13:12:21.808Z,101637.56
2022-12-04T13:14:49.481Z,101637.56
2022-12-04T13:17:30.354Z,101631.53
2022-12-04T13:19:59.151Z,101630.63
2022-12-04T13:22:33.473Z,101622.88
2022-12-04T13:25:10.433Z,101618.56
2022-12-04T13:27:46.861Z,101626.38
2022-12-04T13:30:17.923Z,101616.84
2022-12-04T13:33:29.123Z,101624.69
2022-12-04T13:36:24.163Z,101633.44
2022-12-04T13:39:23.996Z,101630.81
2022-12-04T13:41:59.533Z,101622.16
2022-12-04T13:44:27.855Z,101622.09
2022-12-04T13:46:58.428Z,101621.09
2022-12-04T13:49:29.491Z,101627.94
2022-12-04T13:51:58.573Z,101622.66
2022-12-04T13:54:32.667Z,101620.06
2022-12-04T13:57:20.901Z,101617.50
2022-12-04T13:59:50.435Z,101611.41
2022-12-04T14:02:32.056Z,101623.47
2022-12-04T14:05:01.553Z,101611.13
2022-12-04T14:07:32.393Z,101615.38
2022-12-04T14:10:04.744Z,101617.19
2022-12-04T14:12:35.664Z,101623.19
2022-12-04T14:15:05.452Z,101624.75
2022-12-04T14:17:34.484Z,101619.47
2022-12-04T14:20:07.812Z,101620.47
2022-12-04T14:22:44.432Z,101626.41
2022-12-04T14:25:36.484Z,101629.00
2022-12-04T14:28:23.343Z,101624.63
2022-12-04T14:31:02.553Z,101634.22
2022-12-04T14:33:31.803Z,101641.16
2022-12-04T14:36:02.919Z,101636.69
2022-12-04T14:38:30.836Z,101633.16
2022-12-04T14:41:01.705Z,101643.59
2022-12-04T14:43:33.176Z,101639.31
2022-12-04T14:46:04.980Z,101640.22
2022-12-04T14:48:38.319Z,101635.94
2022-12-04T14:51:12.205Z,101636.88
2022-12-04T14:53:44.058Z,101646.47
2022-12-04T14:56:25.856Z,101641.16
2022-12-04T14:58:53.656Z,101639.38
2022-12-04T15:01:28.634Z,101648.06
2022-12-04T15:03:59.122Z,101645.44
2022-12-04T15:06:27.977Z,101651.50
2022-12-04T15:09:18.213Z,101647.13
2022-12-04T15:12:14.357Z,101647.97
2022-12-04T15:14:42.994Z,101648.81
2022-12-04T15:17:11.886Z,101648.81
2022-12-04T15:19:39.970Z,101648.06
2022-12-04T15:22:13.335Z,101653.28
2022-12-04T15:24:41.032Z,101653.28
2022-12-04T15:27:10.248Z,101661.81
2022-12-04T15:29:42.465Z,101659.25
2022-12-04T15:32:12.784Z,101654.91
2022-12-04T15:34:44.082Z,101654.91
2022-12-04T15:37:17.124Z,101650.66
2022-12-04T15:39:45.172Z,101659.91
2022-12-04T15:42:20.134Z,101659.00
2022-12-04T15:45:00.757Z,101656.41
2022-12-04T15:47:30.010Z,101660.72
2022-12-04T15:50:08.815Z,101668.53
2022-12-04T15:52:37.458Z,101665.06
2022-12-04T15:55:08.591Z,101660.72
2022-12-04T15:57:39.217Z,101661.50
2022-12-04T16:00:09.650Z,101656.41
2022-12-04T16:02:40.405Z,101658.22
2022-12-04T16:05:14.477Z,101658.31
2022-12-04T16:07:49.801Z,101657.44
2022-12-04T16:10:22.819Z,101662.66
2022-12-04T16:12:55.325Z,101660.00
2022-12-04T16:15:23.573Z,101656.59
2022-12-04T16:17:51.801Z,101659.31
2022-12-04T16:20:19.604Z,101662.03
2022-12-04T16:22:48.704Z,101656.81
2022-12-04T16:25:16.498Z,101655.91
2022-12-04T16:27:44.126Z,101650.66
2022-12-04T16:30:14.968Z,101647.97
2022-12-04T16:32:42.694Z,101648.97
2022-12-04T16:35:14.629Z,101650.72
2022-12-04T16:37:43.677Z,101648.19
2022-12-04T16:40:12.855Z,101647.28
2022-12-04T16:42:40.723Z,101648.19
2022-12-04T16:45:22.931Z,101650.72
2022-12-04T16:47:50.672Z,101658.63
2022-12-04T16:50:18.327Z,101657.75
2022-12-04T16:52:45.979Z,101658.72
2022-12-04T16:55:18.504Z,101660.53
2022-12-04T16:57:46.204Z,101662.13
2022-12-04T17:00:15.364Z,101669.91
2022-12-04T17:02:44.952Z,101664.69
2022-12-04T17:05:19.050Z,101671.56
2022-12-04T17:07:46.827Z,101669.00
2022-12-04T17:10:17.682Z,101669.06
2022-12-04T17:12:50.160Z,101671.66
2022-12-04T17:15:17.786Z,101662.06
2022-12-04T17:17:46.829Z,101663.84
2022-12-04T17:20:17.180Z,101659.41
2022-12-04T17:22:44.928Z,101666.31
2022-12-04T17:25:13.512Z,101659.34
2022-12-04T17:27:41.308Z,101662.78
2022-12-04T17:30:10.160Z,101663.69
2022-12-04T17:32:37.931Z,101672.47
2022-12-04T17:35:08.990Z,101669.06
2022-12-04T17:37:38.323Z,101678.66
2022-12-04T17:40:06.851Z,101678.59
2022-12-04T17:42:34.941Z,101680.19
2022-12-04T17:45:02.704Z,101679.28
2022-12-04T17:47:31.000Z,101666.44
2022-12-04T17:49:58.616Z,101677.47
2022-12-04T17:52:29.472Z,101681.91
2022-12-04T17:54:57.221Z,101682.69
2022-12-04T17:57:25.016Z,101691.38
2022-12-04T17:59:53.037Z,101681.78
2022-12-04T18:02:20.801Z,101680.78
2022-12-04T18:04:48.566Z,101685.09
2022-12-04T18:07:16.268Z,101685.09
2022-12-04T18:09:45.286Z,101692.94
2022-12-04T18:12:14.392Z,101688.56
2022-12-04T18:14:42.180Z,101685.03
2022-12-04T18:17:09.810Z,101689.41
2022-12-04T18:19:37.813Z,101693.72
2022-12-04T18:22:05.486Z,101687.66
2022-12-04T18:24:34.000Z,101688.44
2022-12-04T18:27:03.729Z,101691.00
2022-12-04T18:29:31.427Z,101694.53
2022-12-04T18:31:59.147Z,101691.13
2022-12-04T18:34:27.871Z,101692.81
2022-12-04T18:36:55.523Z,101690.28
2022-12-04T18:39:25.025Z,101697.19
2022-12-04T18:41:55.868Z,101692.88
2022-12-04T18:44:25.895Z,101691.25
2022-12-04T18:46:54.125Z,101697.97
2022-12-04T18:49:21.743Z,101704.88
2022-12-04T18:51:50.358Z,101692.75
2022-12-04T18:54:19.996Z,101695.28
2022-12-04T18:56:48.198Z,101690.97
2022-12-04T18:59:17.754Z,101687.34
2022-12-04T19:01:47.041Z,101683.88
2022-12-04T19:04:17.374Z,101683.03
2022-12-04T19:06:46.777Z,101682.91
2022-12-04T19:09:17.338Z,101683.03
2022-12-04T19:11:45.401Z,101683.16
2022-12-04T19:14:22.262Z,101684.09
2022-12-04T19:16:52.280Z,101677.94
2022-12-04T19:19:20.037Z,101680.56
2022-12-04T19:21:47.644Z,101677.94
2022-12-04T19:24:15.328Z,101678.97
2022-12-04T19:26:43.233Z,101684.19
2022-12-04T19:29:13.706Z,101682.28
2022-12-04T19:31:41.527Z,101685.75
2022-12-04T19:34:10.573Z,101686.53
2022-12-04T19:36:38.258Z,101675.13
2022-12-04T19:39:07.076Z,101676.03
2022-12-04T19:41:37.121Z,101677.75
2022-12-04T19:44:25.978Z,101670.75
2022-12-04T19:46:52.835Z,101686.28
2022-12-04T19:49:21.872Z,101683.66
2022-12-04T19:51:49.784Z,101688.84
2022-12-04T19:54:18.019Z,101683.56
2022-12-04T19:56:50.967Z,101682.63
2022-12-04T19:59:20.144Z,101683.63
2022-12-04T20:01:48.435Z,101683.66
2022-12-04T20:04:16.134Z,101682.69
2022-12-04T20:06:46.670Z,101678.25
2022-12-04T20:09:16.101Z,101674.72
2022-12-04T20:11:43.820Z,101673.03
2022-12-04T20:14:11.600Z,101676.34
2022-12-04T20:16:39.895Z,101671.13
2022-12-04T20:19:13.048Z,101672.91
2022-12-04T20:21:40.757Z,101670.28
2022-12-04T20:24:13.271Z,101673.75
2022-12-04T20:26:42.021Z,101679.81
2022-12-04T20:29:12.872Z,101672.84
2022-12-04T20:31:41.700Z,101674.50
2022-12-04T20:34:12.628Z,101667.56
2022-12-04T20:36:42.494Z,101668.47
2022-12-04T20:39:12.487Z,101667.69
2022-12-04T20:41:40.525Z,101677.91
2022-12-04T20:44:09.977Z,101674.38
2022-12-04T20:46:39.491Z,101666.56
2022-12-04T20:49:09.355Z,101665.66
2022-12-04T20:51:39.730Z,101666.50
2022-12-04T20:54:08.398Z,101659.50
2022-12-04T20:56:38.596Z,101673.41
2022-12-04T20:59:08.118Z,101671.78
2022-12-04T21:01:36.570Z,101670.78
2022-12-04T21:04:05.616Z,101668.03
2022-12-04T21:06:35.856Z,101667.97
2022-12-04T21:09:05.913Z,101671.38
2022-12-04T21:11:35.881Z,101668.78
2022-12-04T21:14:23.932Z,101665.28
2022-12-04T21:16:51.769Z,101662.66
2022-12-04T21:19:21.117Z,101665.22
2022-12-04T21:21:49.508Z,101655.63
2022-12-04T21:24:19.994Z,101667.78
2022-12-04T21:26:47.946Z,101653.00
2022-12-04T21:29:19.123Z,101665.31
2022-12-04T21:31:46.990Z,101653.06
2022-12-04T21:34:17.136Z,101660.09
2022-12-04T21:36:46.181Z,101652.22
2022-12-04T21:39:13.912Z,101650.34
2022-12-04T21:41:58.949Z,101650.47
2022-12-04T21:44:28.002Z,101663.53
2022-12-04T21:46:55.845Z,101660.09
2022-12-04T21:49:23.690Z,101642.66
2022-12-04T21:51:59.377Z,101652.22
2022-12-04T21:54:27.875Z,101646.88
2022-12-04T21:56:57.120Z,101652.81
2022-12-04T21:59:25.282Z,101653.72
2022-12-04T22:01:54.748Z,101651.94
2022-12-04T22:04:22.849Z,101645.81
2022-12-04T22:06:50.511Z,101643.97
2022-12-04T22:09:18.569Z,101645.69
2022-12-04T22:11:46.484Z,101649.94
2022-12-04T22:14:14.583Z,101647.28
2022-12-04T22:16:43.246Z,101646.44
2022-12-04T22:19:13.315Z,101643.75
2022-12-04T22:21:41.116Z,101646.31
2022-12-04T22:24:10.511Z,101646.25
2022-12-04T22:26:38.944Z,101644.47
2022-12-04T22:29:26.985Z,101652.25
2022-12-04T22:31:54.620Z,101654.88
2022-12-04T22:34:23.737Z,101654.84
2022-12-04T22:36:51.611Z,101653.94
2022-12-04T22:39:19.232Z,101658.34
2022-12-04T22:41:46.944Z,101648.84
2022-12-04T22:44:14.938Z,101646.19
2022-12-04T22:46:42.647Z,101643.53
2022-12-04T22:49:10.529Z,101644.38
2022-12-04T22:51:39.567Z,101648.63
2022-12-04T22:54:08.394Z,101650.34
2022-12-04T22:56:36.045Z,101653.72
2022-12-04T22:59:03.738Z,101658.97
2022-12-04T23:01:32.892Z,101658.03
2022-12-04T23:04:01.312Z,101662.41
2022-12-04T23:06:30.168Z,101656.31
2022-12-04T23:09:01.253Z,101662.38
2022-12-04T23:11:29.309Z,101659.66
2022-12-04T23:14:00.005Z,101651.69
2022-12-04T23:16:30.482Z,101636.25
2022-12-04T23:18:58.864Z,101653.63
2022-12-04T23:21:27.120Z,101651.75
2022-12-04T23:23:56.057Z,101655.22
2022-12-04T23:26:26.550Z,101667.44
2022-12-04T23:28:54.514Z,101659.66
2022-12-04T23:31:22.420Z,101653.50
2022-12-04T23:33:50.428Z,101661.28
2022-12-04T23:36:18.739Z,101659.53
2022-12-04T23:38:46.362Z,101664.75
2022-12-04T23:41:15.936Z,101663.88
2022-12-04T23:43:45.710Z,101662.94
2022-12-04T23:46:14.803Z,101658.56
2022-12-04T23:48:44.139Z,101656.81
2022-12-04T23:51:13.730Z,101660.22
2022-12-04T23:53:41.623Z,101668.00
2022-12-04T23:56:16.509Z,101657.53
2022-12-04T23:58:46.731Z,101651.44
